Time;durP1;ratioP1;P1;durP2;ratioP2;P2;SDS_P1;SDS_P2;PMS_P1;PMS_P2;Temp;Humidity;BMP_temperature;BMP_pressure;BME280_temperature;BME280_humidity;BME280_pressure;Samples;Min_cycle;Max_cycle;Signal;HPM_P1;HPM_P2
2023/07/08 00:00:25;;;;;;;9.15;4.57;;;;;;;18.52;nan;100832.28;4979227;28;20106;-73
2023/07/08 00:02:51;;;;;;;8.18;4.38;;;;;;;18.49;nan;100830.19;4983227;28;20031;-72
2023/07/08 00:05:19;;;;;;;7.60;4.72;;;;;;;18.52;nan;100847.50;4980241;28;20053;-73
2023/07/08 00:07:45;;;;;;;7.45;4.95;;;;;;;18.46;nan;100838.69;4984471;28;20041;-73
2023/07/08 00:10:16;;;;;;;9.32;4.32;;;;;;;18.46;nan;100849.34;4986060;28;20034;-74
2023/07/08 00:12:43;;;;;;;6.78;4.03;;;;;;;18.38;nan;100847.22;4985169;28;20042;-73
2023/07/08 00:15:10;;;;;;;10.80;4.75;;;;;;;18.34;nan;100848.81;4978195;28;20050;-73
2023/07/08 00:17:36;;;;;;;7.32;4.13;;;;;;;18.23;nan;100840.81;4976758;28;20107;-73
2023/07/08 00:20:17;;;;;;;9.65;4.32;;;;;;;18.26;nan;100847.47;4958312;28;20030;-73
2023/07/08 00:22:46;;;;;;;7.15;3.70;;;;;;;18.20;nan;100840.56;4972128;28;20043;-73
2023/07/08 00:25:13;;;;;;;6.10;3.70;;;;;;;18.18;nan;100843.47;4958899;28;20109;-73
2023/07/08 00:27:39;;;;;;;6.32;3.60;;;;;;;18.11;nan;100848.28;4970439;28;20090;-73
2023/07/08 00:30:17;;;;;;;6.35;3.75;;;;;;;18.01;nan;100842.94;4977775;28;20097;-73
2023/07/08 00:32:42;;;;;;;9.00;3.60;;;;;;;17.92;nan;100842.63;4971864;28;20620;-73
2023/07/08 00:35:08;;;;;;;6.47;3.97;;;;;;;17.79;nan;100832.44;4971957;28;20034;-73
2023/07/08 00:37:33;;;;;;;10.68;3.60;;;;;;;17.72;nan;100827.38;4953586;28;20669;-73
2023/07/08 00:39:58;;;;;;;8.48;3.45;;;;;;;17.75;nan;100837.50;4965309;28;20041;-73
2023/07/08 00:42:24;;;;;;;10.00;4.15;;;;;;;17.78;nan;100836.97;4969710;28;20023;-73
2023/07/08 00:44:50;;;;;;;6.43;3.67;;;;;;;17.72;nan;100834.53;4969437;28;20118;-73
2023/07/08 00:47:15;;;;;;;7.18;3.95;;;;;;;17.65;nan;100848.91;4966909;28;20392;-73
2023/07/08 00:49:50;;;;;;;6.35;4.03;;;;;;;17.50;nan;100837.38;4971227;28;20040;-73
2023/07/08 00:52:17;;;;;;;7.53;4.18;;;;;;;17.60;nan;100856.88;4974264;28;20031;-73
2023/07/08 00:54:43;;;;;;;10.77;3.67;;;;;;;17.60;nan;100848.91;4972157;28;20484;-73
2023/07/08 00:57:10;;;;;;;6.22;3.67;;;;;;;17.57;nan;100856.59;4966485;28;20058;-73
2023/07/08 00:59:48;;;;;;;7.72;4.40;;;;;;;17.49;nan;100847.25;4969898;28;20018;-73
2023/07/08 01:02:17;;;;;;;7.45;4.07;;;;;;;17.41;nan;100856.53;4965839;28;20066;-72
2023/07/08 01:05:04;;;;;;;6.70;4.07;;;;;;;17.36;nan;100855.72;4969593;28;20037;-72
2023/07/08 01:07:32;;;;;;;9.32;4.38;;;;;;;17.33;nan;100858.88;4968826;28;20026;-73
2023/07/08 01:10:06;;;;;;;11.15;4.55;;;;;;;17.35;nan;100854.09;4953482;28;20092;-73
2023/07/08 01:12:37;;;;;;;8.30;4.03;;;;;;;17.33;nan;100854.34;4951586;28;20113;-72
2023/07/08 01:15:04;;;;;;;6.30;3.92;;;;;;;17.35;nan;100859.44;4968140;28;20133;-72
2023/07/08 01:17:32;;;;;;;6.28;4.10;;;;;;;17.31;nan;100850.34;4950903;28;20062;-73
2023/07/08 01:19:59;;;;;;;9.80;4.75;;;;;;;17.27;nan;100847.41;4950110;28;20066;-73
2023/07/08 01:22:24;;;;;;;7.28;4.18;;;;;;;17.20;nan;100844.97;4968796;28;20496;-72
2023/07/08 01:24:50;;;;;;;5.82;4.00;;;;;;;17.15;nan;100841.50;4973352;28;20038;-72
2023/07/08 01:27:19;;;;;;;8.02;4.00;;;;;;;17.16;nan;100838.56;4971555;28;20023;-73
2023/07/08 01:29:46;;;;;;;8.13;4.38;;;;;;;17.10;nan;100833.50;4975851;28;20035;-73
2023/07/08 01:32:17;;;;;;;9.25;4.38;;;;;;;17.14;nan;100847.84;4968499;28;20038;-73
2023/07/08 01:34:59;;;;;;;8.68;4.28;;;;;;;17.06;nan;100835.84;4970806;28;20086;-73
2023/07/08 01:37:35;;;;;;;6.45;4.18;;;;;;;17.08;nan;100838.25;4937508;28;20034;-73
2023/07/08 01:40:24;;;;;;;7.05;3.83;;;;;;;16.85;nan;100810.19;4964116;28;20027;-73
2023/07/08 01:42:50;;;;;;;;;;;;;;;17.01;nan;100847.25;4966233;28;20054;-72
2023/07/08 01:45:18;;;;;;;10.02;4.13;;;;;;;17.00;nan;100842.22;4967679;28;19914;-72
2023/07/08 01:47:50;;;;;;;9.07;4.30;;;;;;;16.97;nan;100846.16;4968705;28;20031;-72
2023/07/08 01:50:16;;;;;;;7.20;3.90;;;;;;;17.00;nan;100847.53;4973738;28;20046;-74
2023/07/08 01:52:42;;;;;;;7.57;4.20;;;;;;;16.96;nan;100852.56;4962509;28;20042;-71
2023/07/08 01:55:08;;;;;;;6.45;3.92;;;;;;;16.87;nan;100845.31;4971543;28;20113;-72
2023/07/08 01:57:33;;;;;;;9.77;4.25;;;;;;;16.78;nan;100845.78;4970205;28;20436;-72
2023/07/08 01:59:58;;;;;;;7.55;4.15;;;;;;;16.76;nan;100842.56;4968421;28;20467;-72
2023/07/08 02:02:25;;;;;;;11.07;4.40;;;;;;;16.80;nan;100840.19;4964747;28;20102;-72
2023/07/08 02:04:50;;;;;;;8.40;4.55;;;;;;;16.80;nan;100841.00;4967712;28;20575;-73
2023/07/08 02:07:16;;;;;;;8.23;4.68;;;;;;;16.76;nan;100842.56;4968620;28;20022;-73
2023/07/08 02:09:41;;;;;;;7.45;5.07;;;;;;;16.68;nan;100827.06;4969158;28;20054;-72
2023/07/08 02:12:07;;;;;;;8.10;4.60;;;;;;;16.68;nan;100839.56;4953957;28;20042;-72
2023/07/08 02:14:32;;;;;;;7.93;4.50;;;;;;;16.56;nan;100832.53;4964773;28;20046;-72
2023/07/08 02:16:58;;;;;;;8.85;4.28;;;;;;;16.54;nan;100820.56;4967170;28;20065;-73
2023/07/08 02:19:24;;;;;;;7.80;4.65;;;;;;;16.60;nan;100830.19;4972090;28;20030;-73
2023/07/08 02:21:51;;;;;;;9.88;5.00;;;;;;;16.52;nan;100822.66;4989809;28;20036;-73
2023/07/08 02:24:17;;;;;;;6.53;4.53;;;;;;;16.50;nan;100830.91;4967583;28;20082;-72
2023/07/08 02:26:43;;;;;;;9.27;4.88;;;;;;;16.49;nan;100845.25;4971156;28;20673;-71
2023/07/08 02:29:08;;;;;;;12.68;4.97;;;;;;;16.48;nan;100842.88;4957029;28;20037;-72
2023/07/08 02:31:33;;;;;;;7.55;4.68;;;;;;;16.46;nan;100851.06;4968556;28;20080;-72
2023/07/08 02:34:01;;;;;;;7.40;4.80;;;;;;;16.43;nan;100845.47;4967545;28;20494;-72
2023/07/08 02:36:27;;;;;;;11.45;4.70;;;;;;;16.30;nan;100836.84;4949038;28;20037;-73
2023/07/08 02:38:52;;;;;;;6.00;4.57;;;;;;;16.23;nan;100841.56;4967924;28;20109;-73
2023/07/08 02:41:17;;;;;;;7.65;4.82;;;;;;;16.37;nan;100845.41;4970470;28;20472;-72
2023/07/08 02:43:43;;;;;;;7.55;4.75;;;;;;;16.32;nan;100845.38;4958069;28;20027;-73
2023/07/08 02:46:08;;;;;;;6.43;4.63;;;;;;;16.19;nan;100835.16;4969904;28;20033;-73
2023/07/08 02:48:34;;;;;;;6.82;4.45;;;;;;;16.28;nan;100846.13;4953426;28;20560;-73
2023/07/08 02:51:00;;;;;;;8.98;5.03;;;;;;;16.28;nan;100849.59;4966049;28;20042;-72
2023/07/08 02:53:26;;;;;;;9.77;4.90;;;;;;;16.04;nan;100821.72;4968475;28;20117;-74
2023/07/08 02:55:51;;;;;;;9.73;5.07;;;;;;;16.15;nan;100850.78;4969033;28;20105;-73
2023/07/08 02:58:16;;;;;;;10.63;5.75;;;;;;;16.17;nan;100856.66;4960988;28;20042;-73
2023/07/08 03:00:42;;;;;;;7.65;4.60;;;;;;;16.14;nan;100859.81;4967664;28;20050;-73
2023/07/08 03:03:07;;;;;;;8.05;4.90;;;;;;;16.11;nan;100851.53;4966244;28;20534;-72
2023/07/08 03:05:33;;;;;;;9.38;4.78;;;;;;;16.16;nan;100862.22;4968531;28;20039;-72
2023/07/08 03:07:59;;;;;;;8.55;4.93;;;;;;;16.10;nan;100853.41;4970665;28;20113;-73
2023/07/08 03:10:24;;;;;;;12.48;5.38;;;;;;;16.14;nan;100864.34;4955177;28;20117;-74
2023/07/08 03:12:50;;;;;;;8.85;5.10;;;;;;;16.08;nan;100857.34;4973457;28;20062;-73
2023/07/08 03:15:15;;;;;;;8.02;4.80;;;;;;;16.09;nan;100866.91;4941384;28;20053;-72
2023/07/08 03:17:41;;;;;;;8.85;5.22;;;;;;;15.98;nan;100855.41;4958208;28;20026;-73
2023/07/08 03:20:08;;;;;;;9.32;5.18;;;;;;;16.06;nan;100872.75;4956132;28;20080;-73
2023/07/08 03:22:33;;;;;;;9.18;5.20;;;;;;;15.99;nan;100861.50;4971742;28;20102;-73
2023/07/08 03:24:59;;;;;;;14.18;5.35;;;;;;;15.97;nan;100859.13;4967440;28;20103;-74
2023/07/08 03:27:24;;;;;;;7.55;5.20;;;;;;;15.93;nan;100856.16;4974094;28;20031;-73
2023/07/08 03:29:50;;;;;;;8.80;5.20;;;;;;;15.84;nan;100860.28;4952991;28;20030;-73
2023/07/08 03:32:15;;;;;;;8.20;5.07;;;;;;;15.76;nan;100849.31;4974257;28;20109;-72
2023/07/08 03:34:41;;;;;;;7.88;5.20;;;;;;;15.90;nan;100875.25;4974835;28;20504;-73
2023/07/08 03:37:08;;;;;;;9.55;5.65;;;;;;;15.94;nan;100881.63;4973125;28;20109;-73
2023/07/08 03:39:34;;;;;;;9.23;5.65;;;;;;;15.89;nan;100872.81;4974345;28;20050;-73
2023/07/08 03:41:59;;;;;;;12.85;5.72;;;;;;;15.93;nan;100885.38;4973727;28;20030;-73
2023/07/08 03:44:25;;;;;;;10.27;5.90;;;;;;;15.98;nan;100881.97;4975306;28;20129;-73
2023/07/08 03:46:50;;;;;;;8.05;5.03;;;;;;;16.00;nan;100885.19;4971304;28;20844;-73
2023/07/08 03:49:21;;;;;;;10.85;6.18;;;;;;;16.08;nan;100897.22;4954314;28;20023;-72
2023/07/08 03:51:48;;;;;;;8.52;5.35;;;;;;;16.08;nan;100895.34;4976164;28;20064;-73
2023/07/08 03:54:14;;;;;;;8.52;5.55;;;;;;;16.13;nan;100898.06;4972320;28;20035;-73
2023/07/08 03:56:40;;;;;;;11.80;6.30;;;;;;;16.16;nan;100896.75;4959108;28;20471;-73
2023/07/08 03:59:05;;;;;;;9.43;5.45;;;;;;;16.22;nan;100900.28;4971660;28;20120;-73
2023/07/08 04:01:31;;;;;;;10.70;6.07;;;;;;;16.16;nan;100888.78;4962383;28;20436;-73
2023/07/08 04:03:58;;;;;;;10.25;5.55;;;;;;;16.23;nan;100883.28;4970482;28;20489;-73
2023/07/08 04:06:24;;;;;;;8.65;5.25;;;;;;;16.35;nan;100894.56;4943565;28;20031;-73
2023/07/08 04:08:50;;;;;;;7.43;5.38;;;;;;;16.33;nan;100886.84;4974204;28;20045;-72
2023/07/08 04:11:22;;;;;;;10.48;5.50;;;;;;;16.38;nan;100884.25;4972779;28;20486;-72
2023/07/08 04:13:48;;;;;;;9.77;5.57;;;;;;;16.51;nan;100895.50;4968756;28;20050;-73
2023/07/08 04:16:23;;;;;;;16.45;5.78;;;;;;;16.58;nan;100896.09;4969164;28;20038;-73
2023/07/08 04:18:50;;;;;;;9.57;5.28;;;;;;;16.58;nan;100888.94;4968517;28;20022;-73
2023/07/08 04:21:17;;;;;;;12.25;5.45;;;;;;;16.74;nan;100905.03;4985802;28;20472;-72
2023/07/08 04:23:43;;;;;;;8.48;5.18;;;;;;;16.72;nan;100889.31;4974625;28;20034;-72
2023/07/08 04:26:09;;;;;;;9.68;5.38;;;;;;;16.90;nan;100898.00;4955602;28;20031;-73
2023/07/08 04:28:35;;;;;;;8.15;5.50;;;;;;;16.98;nan;100901.00;4972530;28;20042;-72
2023/07/08 04:31:01;;;;;;;12.68;5.57;;;;;;;16.76;nan;100853.19;4959040;28;20400;-73
2023/07/08 04:33:26;;;;;;;8.68;5.50;;;;;;;17.14;nan;100899.25;4951372;28;20043;-73
2023/07/08 04:35:54;;;;;;;7.35;5.00;;;;;;;17.17;nan;100892.59;4967238;28;20035;-72
2023/07/08 04:38:22;;;;;;;8.27;5.22;;;;;;;17.22;nan;100898.75;4971514;28;20053;-73
2023/07/08 04:40:48;;;;;;;6.97;4.88;;;;;;;17.29;nan;100889.75;4969738;28;20096;-73
2023/07/08 04:43:14;;;;;;;9.05;4.95;;;;;;;17.37;nan;100886.59;4955074;28;20220;-73
2023/07/08 04:45:42;;;;;;;9.05;5.20;;;;;;;17.45;nan;100888.75;4972489;28;20035;-73
2023/07/08 04:48:13;;;;;;;12.13;5.32;;;;;;;17.53;nan;100888.28;4970467;28;20481;-73
2023/07/08 04:50:43;;;;;;;6.63;4.93;;;;;;;17.59;nan;100889.09;4971311;28;20112;-74
2023/07/08 04:53:09;;;;;;;10.32;5.47;;;;;;;17.62;nan;100883.25;4947400;28;20089;-75
2023/07/08 04:55:37;;;;;;;8.70;5.80;;;;;;;17.69;nan;100885.66;4974784;28;20524;-73
2023/07/08 04:58:03;;;;;;;8.57;5.23;;;;;;;17.75;nan;100885.44;4972503;28;20034;-72
2023/07/08 05:00:29;;;;;;;10.02;5.18;;;;;;;17.76;nan;100878.25;4972461;28;20030;-74
2023/07/08 05:02:55;;;;;;;8.45;4.50;;;;;;;17.88;nan;100883.38;4976487;28;20063;-74
2023/07/08 05:05:20;;;;;;;8.43;4.85;;;;;;;17.97;nan;100895.13;4984473;28;20145;-73
2023/07/08 05:07:46;;;;;;;8.95;4.97;;;;;;;17.96;nan;100891.69;4973928;28;20046;-72
2023/07/08 05:10:12;;;;;;;10.73;5.43;;;;;;;18.05;nan;100903.44;4988436;28;20672;-73
2023/07/08 05:12:37;;;;;;;9.05;4.88;;;;;;;18.08;nan;100896.78;4954323;28;20043;-72
2023/07/08 05:15:03;;;;;;;7.60;5.15;;;;;;;18.27;nan;100905.09;4987622;28;20081;-71
2023/07/08 05:17:29;;;;;;;10.93;4.72;;;;;;;18.27;nan;100903.22;4970622;28;20053;-70
2023/07/08 05:19:57;;;;;;;7.50;4.78;;;;;;;18.40;nan;100915.22;4975304;28;20022;-70
2023/07/08 05:22:25;;;;;;;11.13;5.25;;;;;;;18.46;nan;100916.03;4972970;28;20153;-69
2023/07/08 05:24:52;;;;;;;5.75;4.28;;;;;;;18.56;nan;100923.25;4948065;28;20145;-69
2023/07/08 05:27:18;;;;;;;7.43;4.90;;;;;;;18.68;nan;100921.94;4948141;28;20407;-71
2023/07/08 05:29:46;;;;;;;5.75;4.50;;;;;;;18.81;nan;100922.50;4970037;28;20027;-71
2023/07/08 05:32:11;;;;;;;10.38;4.75;;;;;;;18.85;nan;100915.56;4969833;28;20078;-74
2023/07/08 05:34:36;;;;;;;9.55;5.18;;;;;;;18.97;nan;100934.78;4981144;28;20027;-73
2023/07/08 05:37:02;;;;;;;11.43;5.63;;;;;;;18.97;nan;100920.63;4980675;28;20023;-74
2023/07/08 05:39:29;;;;;;;8.13;5.03;;;;;;;19.11;nan;100922.47;4959753;28;20041;-73
2023/07/08 05:41:55;;;;;;;8.23;4.50;;;;;;;19.21;nan;100923.53;4959773;28;21271;-70
2023/07/08 05:44:20;;;;;;;6.25;4.50;;;;;;;19.21;nan;100927.00;4976818;28;20520;-69
2023/07/08 05:46:45;;;;;;;7.32;4.63;;;;;;;19.37;nan;100932.31;4975648;28;20031;-71
2023/07/08 05:49:11;;;;;;;9.23;4.28;;;;;;;19.51;nan;100936.00;4971008;28;20022;-69
2023/07/08 05:51:37;;;;;;;10.23;4.43;;;;;;;19.59;nan;100937.34;4969959;28;20031;-70
2023/07/08 05:54:03;;;;;;;9.70;4.10;;;;;;;19.69;nan;100942.69;4972804;28;20086;-71
2023/07/08 05:56:30;;;;;;;11.68;4.07;;;;;;;19.73;nan;100936.53;4983655;28;20027;-70
2023/07/08 05:58:56;;;;;;;14.00;4.15;;;;;;;19.83;nan;100942.91;4956154;28;20498;-70
2023/07/08 06:01:21;;;;;;;7.32;3.97;;;;;;;19.97;nan;100936.69;4967841;28;20031;-71
2023/07/08 06:03:47;;;;;;;8.82;4.20;;;;;;;20.14;nan;100943.56;4966171;28;20038;-71
2023/07/08 06:06:12;;;;;;;7.35;4.15;;;;;;;20.23;nan;100943.75;4966947;28;20030;-69
2023/07/08 06:08:38;;;;;;;8.57;3.97;;;;;;;20.35;nan;100950.41;4972956;28;20503;-69
2023/07/08 06:11:03;;;;;;;6.43;3.70;;;;;;;20.39;nan;100948.75;4966026;28;20385;-70
2023/07/08 06:13:29;;;;;;;8.40;3.75;;;;;;;20.49;nan;100952.44;4968224;28;20117;-71
2023/07/08 06:15:54;;;;;;;6.40;3.67;;;;;;;20.57;nan;100954.56;4965788;28;20069;-72
2023/07/08 06:18:20;;;;;;;7.38;3.65;;;;;;;20.71;nan;100955.53;4966979;28;20027;-71
2023/07/08 06:20:54;;;;;;;12.60;3.75;;;;;;;20.85;nan;100965.59;4954164;28;20038;-71
2023/07/08 06:23:19;;;;;;;7.07;3.97;;;;;;;20.94;nan;100966.59;4968482;28;20106;-70
2023/07/08 06:25:45;;;;;;;7.97;3.97;;;;;;;20.99;nan;100953.97;4966278;28;20121;-69
2023/07/08 06:28:10;;;;;;;7.70;4.50;;;;;;;21.07;nan;100957.09;4965000;28;20027;-71
2023/07/08 06:30:36;;;;;;;11.95;4.40;;;;;;;21.07;nan;100949.06;4969751;28;20031;-68
2023/07/08 06:33:02;;;;;;;5.90;3.75;;;;;;;21.21;nan;100958.06;4965551;28;20042;-71
2023/07/08 06:35:27;;;;;;;6.05;3.80;;;;;;;21.35;nan;100958.19;4969445;28;20037;-70
2023/07/08 06:37:52;;;;;;;7.22;3.78;;;;;;;21.37;nan;100958.72;4968815;28;20077;-69
2023/07/08 06:40:19;;;;;;;10.15;4.28;;;;;;;21.51;nan;100959.66;4968673;28;20038;-71
2023/07/08 06:42:45;;;;;;;8.23;4.03;;;;;;;21.61;nan;100966.78;4950478;28;20080;-70
2023/07/08 06:45:10;;;;;;;11.32;3.75;;;;;;;21.68;nan;100964.56;4972587;28;20113;-68
2023/07/08 06:47:35;;;;;;;7.25;3.47;;;;;;;21.67;nan;100950.38;4973061;28;20041;-70
2023/07/08 06:50:02;;;;;;;6.80;3.80;;;;;;;21.83;nan;100955.53;4969866;28;20370;-69
2023/07/08 06:52:27;;;;;;;7.07;3.35;;;;;;;21.97;nan;100966.38;4971433;28;20117;-70
2023/07/08 06:54:53;;;;;;;6.88;3.20;;;;;;;21.99;nan;100958.84;4970612;28;20105;-68
2023/07/08 06:57:18;;;;;;;7.65;3.63;;;;;;;22.03;nan;100951.81;4969564;28;20030;-69
2023/07/08 06:59:44;;;;;;;6.95;3.60;;;;;;;22.09;nan;100961.38;4972327;28;20037;-71
2023/07/08 07:02:09;;;;;;;8.93;4.00;;;;;;;22.06;nan;100951.25;4957019;28;20484;-71
2023/07/08 07:04:35;;;;;;;8.73;3.50;;;;;;;22.28;nan;100969.47;4953910;28;20041;-70
2023/07/08 07:07:01;;;;;;;5.95;3.50;;;;;;;22.33;nan;100963.25;4957004;28;20034;-70
2023/07/08 07:09:26;;;;;;;4.70;3.50;;;;;;;22.35;nan;100953.81;4975609;28;21856;-71
2023/07/08 07:11:51;;;;;;;11.48;3.67;;;;;;;22.41;nan;100958.03;4970134;28;20037;-71
2023/07/08 07:14:17;;;;;;;4.85;3.33;;;;;;;22.45;nan;100958.25;4970972;28;20046;-70
2023/07/08 07:16:42;;;;;;;5.88;3.00;;;;;;;22.61;nan;100958.81;4969684;28;20039;-72
2023/07/08 07:19:08;;;;;;;8.10;3.03;;;;;;;22.64;nan;100961.72;4969551;28;20042;-71
2023/07/08 07:21:33;;;;;;;4.65;3.10;;;;;;;22.70;nan;100963.22;4953705;28;20035;-70
2023/07/08 07:23:58;;;;;;;5.97;3.05;;;;;;;22.82;nan;100965.47;4968799;28;20494;-71
2023/07/08 07:26:24;;;;;;;6.95;3.00;;;;;;;22.87;nan;100968.06;4977193;28;20112;-72
2023/07/08 07:28:49;;;;;;;5.68;3.15;;;;;;;22.91;nan;100958.34;4973203;28;20502;-70
2023/07/08 07:31:15;;;;;;;4.03;2.78;;;;;;;22.93;nan;100963.41;4971703;28;20026;-71
2023/07/08 07:33:40;;;;;;;7.47;2.95;;;;;;;22.99;nan;100964.94;4971445;28;20030;-70
2023/07/08 07:36:05;;;;;;;5.10;2.92;;;;;;;23.03;nan;100963.25;4971841;28;20026;-71
2023/07/08 07:38:33;;;;;;;4.78;2.92;;;;;;;23.15;nan;100965.47;4967014;28;20437;-69
2023/07/08 07:40:59;;;;;;;4.30;2.72;;;;;;;23.21;nan;100969.66;4970524;28;20030;-68
2023/07/08 07:43:25;;;;;;;5.55;2.67;;;;;;;23.33;nan;100961.94;4968139;28;20101;-71
2023/07/08 07:45:52;;;;;;;4.07;2.45;;;;;;;23.38;nan;100955.66;4968885;28;20594;-69
2023/07/08 07:48:18;;;;;;;5.78;3.05;;;;;;;23.41;nan;100962.34;4975239;28;20031;-69
2023/07/08 07:50:47;;;;;;;6.10;2.45;;;;;;;23.41;nan;100949.69;4968542;28;20034;-70
2023/07/08 07:53:12;;;;;;;6.77;2.70;;;;;;;23.42;nan;100945.13;4968793;28;20041;-71
2023/07/08 07:55:38;;;;;;;3.83;2.15;;;;;;;23.47;nan;100950.41;4971081;28;20370;-70
2023/07/08 07:58:04;;;;;;;4.60;2.20;;;;;;;23.60;nan;100959.56;4963699;28;20038;-70
2023/07/08 08:00:30;;;;;;;9.60;2.85;;;;;;;23.62;nan;100942.03;4967486;28;20027;-70
2023/07/08 08:02:55;;;;;;;5.70;2.30;;;;;;;23.62;nan;100936.66;4972970;28;20484;-69
2023/07/08 08:05:21;;;;;;;3.22;2.33;;;;;;;23.73;nan;100945.31;4965900;28;20329;-69
2023/07/08 08:07:47;;;;;;;4.75;2.60;;;;;;;23.80;nan;100944.94;4970133;28;20035;-68
2023/07/08 08:10:13;;;;;;;6.85;2.53;;;;;;;23.83;nan;100947.03;4958413;28;20034;-71
2023/07/08 08:12:39;;;;;;;7.13;2.60;;;;;;;23.86;nan;100952.59;4954830;28;20037;-70
2023/07/08 08:15:05;;;;;;;6.07;2.65;;;;;;;23.99;nan;100951.78;4971983;28;20042;-69
2023/07/08 08:17:32;;;;;;;3.03;2.00;;;;;;;24.09;nan;100960.75;4970286;28;20051;-70
2023/07/08 08:20:01;;;;;;;4.90;2.38;;;;;;;24.14;nan;100952.56;4953230;28;20031;-70
2023/07/08 08:22:27;;;;;;;6.03;2.28;;;;;;;24.08;nan;100932.22;4967435;28;20034;-68
2023/07/08 08:24:56;;;;;;;4.07;2.58;;;;;;;24.16;nan;100950.38;4974900;28;20693;-68
2023/07/08 08:27:21;;;;;;;5.97;2.40;;;;;;;24.18;nan;100945.47;4953791;28;20089;-70
2023/07/08 08:29:47;;;;;;;13.38;7.95;;;;;;;24.21;nan;100939.50;4955445;28;20726;-70
2023/07/08 08:32:16;;;;;;;25.85;23.20;;;;;;;24.33;nan;100955.91;4967815;28;20035;-69
2023/07/08 08:34:42;;;;;;;16.70;15.02;;;;;;;24.38;nan;100941.53;4949956;28;20121;-70
2023/07/08 08:37:07;;;;;;;4.63;2.65;;;;;;;24.41;nan;100936.31;4958803;28;20141;-69
2023/07/08 08:39:33;;;;;;;4.50;2.30;;;;;;;24.48;nan;100943.22;4972394;28;20087;-71
2023/07/08 08:41:59;;;;;;;8.02;2.92;;;;;;;24.51;nan;100923.75;4970101;28;20050;-71
2023/07/08 08:44:35;;;;;;;4.00;2.20;;;;;;;24.51;nan;100937.22;4955278;28;20077;-72
2023/07/08 08:47:10;;;;;;;7.07;2.20;;;;;;;24.68;nan;100944.63;4970252;28;20037;-71
2023/07/08 08:49:47;;;;;;;8.02;6.07;;;;;;;24.69;nan;100946.22;4984251;28;20027;-72
2023/07/08 08:52:14;;;;;;;22.10;14.60;;;;;;;24.74;nan;100948.78;4965683;28;20046;-70
2023/07/08 08:54:39;;;;;;;14.43;8.93;;;;;;;24.67;nan;100933.06;4958886;28;20082;-69
2023/07/08 08:57:11;;;;;;;5.75;4.03;;;;;;;24.77;nan;100945.47;4953184;28;20117;-72
2023/07/08 08:59:44;;;;;;;11.63;3.47;;;;;;;24.86;nan;100950.94;4964825;28;20038;-69
2023/07/08 09:02:38;;;;;;;6.85;3.53;;;;;;;24.89;nan;100943.00;4964947;28;20122;-69
2023/07/08 09:05:07;;;;;;;20.98;12.48;;;;;;;24.95;nan;100951.75;4973494;28;20034;-69
2023/07/08 09:07:42;;;;;;;;;;;;;;;24.97;nan;100941.47;4955004;28;20650;-69
2023/07/08 09:10:34;;;;;;;12.48;9.63;;;;;;;25.13;nan;100939.19;4966280;28;19933;-69
2023/07/08 09:13:04;;;;;;;7.03;3.47;;;;;;;25.14;nan;100936.19;4967365;28;20472;-69
2023/07/08 09:15:30;;;;;;;4.60;2.75;;;;;;;25.19;nan;100933.38;4953231;28;20153;-70
2023/07/08 09:18:10;;;;;;;4.90;2.60;;;;;;;25.29;nan;100936.91;4966846;28;20673;-69
2023/07/08 09:20:36;;;;;;;4.72;2.95;;;;;;;25.27;nan;100917.56;4968576;28;20038;-70
2023/07/08 09:23:25;;;;;;;7.78;2.58;;;;;;;25.42;nan;100936.00;4969663;28;20593;-69
2023/07/08 09:25:58;;;;;;;4.85;2.28;;;;;;;25.17;nan;100897.84;4967408;28;20370;-70
2023/07/08 09:28:36;;;;;;;6.80;3.08;;;;;;;25.40;nan;100924.72;4966049;28;20045;-69
2023/07/08 09:31:05;;;;;;;5.23;3.57;;;;;;;25.40;nan;100922.81;4952268;28;20034;-70
2023/07/08 09:33:30;;;;;;;3.78;2.38;;;;;;;25.41;nan;100924.41;4971477;28;20026;-70
2023/07/08 09:35:55;;;;;;;4.32;2.15;;;;;;;25.50;nan;100932.56;4967425;28;20166;-70
2023/07/08 09:38:22;;;;;;;4.93;1.83;;;;;;;25.49;nan;100925.56;4972046;28;20062;-69
2023/07/08 09:40:56;;;;;;;2.75;2.05;;;;;;;25.53;nan;100926.53;4969392;28;20109;-73
2023/07/08 09:43:36;;;;;;;6.20;2.25;;;;;;;25.55;nan;100926.19;4964262;28;20046;-72
2023/07/08 09:46:01;;;;;;;8.52;2.45;;;;;;;25.64;nan;100935.94;4950642;28;20031;-72
2023/07/08 09:48:30;;;;;;;2.95;1.90;;;;;;;25.60;nan;100924.16;4963595;28;20080;-69
2023/07/08 09:50:59;;;;;;;4.75;2.45;;;;;;;25.60;nan;100924.16;4964242;28;20045;-71
2023/07/08 09:53:24;;;;;;;;;;;;;;;25.68;nan;100925.28;4971203;28;20035;-70
2023/07/08 09:55:51;;;;;;;4.32;2.38;;;;;;;25.69;nan;100910.69;4957716;28;20450;-70
2023/07/08 09:58:48;;;;;;;5.20;1.90;;;;;;;25.88;nan;100924.72;4966796;28;20576;-71
2023/07/08 10:01:22;;;;;;;2.72;2.00;;;;;;;25.90;nan;100919.00;4951506;28;20054;-70
2023/07/08 10:03:47;;;;;;;2.95;1.90;;;;;;;26.01;nan;100924.91;4970338;28;20019;-71
2023/07/08 10:06:33;;;;;;;6.68;2.30;;;;;;;26.14;nan;100928.56;4953480;28;20031;-69
2023/07/08 10:09:05;;;;;;;5.93;1.92;;;;;;;26.17;nan;100928.72;4969096;28;20038;-71
2023/07/08 10:11:42;;;;;;;7.00;2.20;;;;;;;26.17;nan;100909.84;4970099;28;20022;-71
2023/07/08 10:14:18;;;;;;;7.93;2.35;;;;;;;26.21;nan;100920.78;4982333;28;20153;-71
2023/07/08 10:16:43;;;;;;;21.88;12.38;;;;;;;26.28;nan;100919.19;4967571;28;20034;-70
2023/07/08 10:19:15;;;;;;;10.60;4.20;;;;;;;26.30;nan;100924.28;4967004;28;20523;-71
2023/07/08 10:22:18;;;;;;;5.07;2.50;;;;;;;26.27;nan;100933.03;4965390;28;20034;-71
2023/07/08 10:25:11;;;;;;;8.00;3.00;;;;;;;26.43;nan;100934.09;4969108;28;20499;-71
2023/07/08 10:28:17;;;;;;;6.07;2.00;;;;;;;26.55;nan;100938.09;4967070;28;20122;-72
2023/07/08 10:31:21;;;;;;;2.92;1.80;;;;;;;26.50;nan;100942.50;4964814;28;20050;-72
2023/07/08 10:34:10;;;;;;;3.47;1.88;;;;;;;26.58;nan;100937.44;4945701;28;20070;-72
2023/07/08 10:37:00;;;;;;;7.28;2.50;;;;;;;26.68;nan;100929.03;4912409;29;20417;-70
2023/07/08 10:39:44;;;;;;;6.47;1.92;;;;;;;26.65;nan;100943.97;4906249;29;20047;-71
2023/07/08 10:42:19;;;;;;;5.43;1.80;;;;;;;26.65;nan;100935.88;4909932;29;20040;-71
2023/07/08 10:45:23;;;;;;;4.35;1.88;;;;;;;26.69;nan;100941.41;4909902;29;20036;-71
2023/07/08 10:48:04;;;;;;;12.15;7.95;;;;;;;26.64;nan;100928.88;4834432;29;20899;-70
2023/07/08 10:50:38;;;;;;;8.38;5.00;;;;;;;26.71;nan;100931.09;4851313;29;20065;-71
2023/07/08 10:53:53;;;;;;;6.47;4.47;;;;;;;26.66;nan;100917.75;4855924;29;20044;-70
2023/07/08 10:56:34;;;;;;;7.18;3.00;;;;;;;26.68;nan;100916.31;4848761;29;20052;-70
2023/07/08 10:59:19;;;;;;;8.40;2.40;;;;;;;26.66;nan;100912.34;4851914;29;20555;-69
2023/07/08 11:01:54;;;;;;;10.73;4.05;;;;;;;26.70;nan;100910.59;4852516;29;20038;-69
2023/07/08 11:04:40;;;;;;;6.07;2.85;;;;;;;26.67;nan;100906.63;4852644;29;20049;-70
2023/07/08 11:07:16;;;;;;;9.98;5.18;;;;;;;26.80;nan;100923.75;4855382;29;20037;-71
2023/07/08 11:09:53;;;;;;;4.00;2.50;;;;;;;26.66;nan;100896.94;4854075;29;20136;-70
2023/07/08 11:12:41;;;;;;;3.63;2.30;;;;;;;26.79;nan;100905.94;4851744;29;20045;-72
2023/07/08 11:15:18;;;;;;;8.97;2.80;;;;;;;26.83;nan;100915.00;4893551;29;20666;-74
2023/07/08 11:17:52;;;;;;;7.15;2.10;;;;;;;26.80;nan;100912.94;4890571;29;20043;-70
2023/07/08 11:20:30;;;;;;;5.78;2.65;;;;;;;26.85;nan;100895.78;4866600;29;20052;-71
2023/07/08 11:23:06;;;;;;;8.10;3.00;;;;;;;26.97;nan;100890.47;4966506;28;20050;-72
2023/07/08 11:25:33;;;;;;;7.55;3.90;;;;;;;27.04;nan;100882.66;4966608;28;20037;-72
2023/07/08 11:28:04;;;;;;;9.30;2.20;;;;;;;27.13;nan;100882.63;4965112;28;20023;-71
2023/07/08 11:30:32;;;;;;;6.47;2.10;;;;;;;27.13;nan;100890.75;4963694;28;20047;-72
2023/07/08 11:33:10;;;;;;;5.70;2.10;;;;;;;26.98;nan;100885.88;4968268;28;20027;-72
2023/07/08 11:35:43;;;;;;;2.95;1.92;;;;;;;27.00;nan;100883.63;4971828;28;20038;-71
2023/07/08 11:38:19;;;;;;;11.70;3.25;;;;;;;27.07;nan;100889.31;4984406;28;20027;-72
2023/07/08 11:40:52;;;;;;;5.97;3.22;;;;;;;27.01;nan;100877.09;4953712;28;20034;-71
2023/07/08 11:43:20;;;;;;;7.47;4.22;;;;;;;27.04;nan;100871.06;4972859;28;20660;-70
2023/07/08 11:45:49;;;;;;;446.48;262.60;;;;;;;27.19;nan;100889.47;4968603;28;20071;-70
2023/07/08 11:48:16;;;;;;;13.35;7.15;;;;;;;27.17;nan;100883.56;4966215;28;20034;-71
2023/07/08 11:50:44;;;;;;;35.78;24.77;;;;;;;27.13;nan;100878.00;4973701;28;20113;-71